sensor_id;sensor_type;location;lat;lon;timestamp;temperature;humidity
19868;DHT22;10096;51.112;6.776;2023-08-12T00:00:30;21.80;1.00
19868;DHT22;10096;51.112;6.776;2023-08-12T00:02:57;21.80;1.00
19868;DHT22;10096;51.112;6.776;2023-08-12T00:05:25;21.80;35.50
19868;DHT22;10096;51.112;6.776;2023-08-12T00:07:51;21.80;99.90
19868;DHT22;10096;51.112;6.776;2023-08-12T00:10:18;21.70;86.00
19868;DHT22;10096;51.112;6.776;2023-08-12T00:12:45;21.80;37.80
19868;DHT22;10096;51.112;6.776;2023-08-12T00:15:14;21.80;1.00
19868;DHT22;10096;51.112;6.776;2023-08-12T00:17:41;21.80;1.00
19868;DHT22;10096;51.112;6.776;2023-08-12T00:20:09;21.70;1.00
19868;DHT22;10096;51.112;6.776;2023-08-12T00:22:36;21.80;1.00
19868;DHT22;10096;51.112;6.776;2023-08-12T00:25:04;21.80;1.00
19868;DHT22;10096;51.112;6.776;2023-08-12T00:27:31;21.80;99.90
19868;DHT22;10096;51.112;6.776;2023-08-12T00:29:58;21.80;1.00
19868;DHT22;10096;51.112;6.776;2023-08-12T00:32:26;21.70;99.90
19868;DHT22;10096;51.112;6.776;2023-08-12T00:34:53;21.60;99.90
19868;DHT22;10096;51.112;6.776;2023-08-12T00:37:20;21.60;1.00
19868;DHT22;10096;51.112;6.776;2023-08-12T00:39:47;21.60;99.90
19868;DHT22;10096;51.112;6.776;2023-08-12T00:42:14;21.60;1.00
19868;DHT22;10096;51.112;6.776;2023-08-12T00:44:41;21.60;1.00
19868;DHT22;10096;51.112;6.776;2023-08-12T00:47:08;21.70;40.00
19868;DHT22;10096;51.112;6.776;2023-08-12T00:49:39;21.70;1.00
19868;DHT22;10096;51.112;6.776;2023-08-12T00:52:09;21.60;99.90
19868;DHT22;10096;51.112;6.776;2023-08-12T00:54:36;21.60;99.90
19868;DHT22;10096;51.112;6.776;2023-08-12T00:57:03;21.60;99.90
19868;DHT22;10096;51.112;6.776;2023-08-12T00:59:30;21.60;1.00
19868;DHT22;10096;51.112;6.776;2023-08-12T01:01:57;21.60;1.00
19868;DHT22;10096;51.112;6.776;2023-08-12T01:04:24;21.60;1.00
19868;DHT22;10096;51.112;6.776;2023-08-12T01:06:53;21.60;71.40
19868;DHT22;10096;51.112;6.776;2023-08-12T01:09:20;21.70;87.10
19868;DHT22;10096;51.112;6.776;2023-08-12T01:11:50;21.70;1.00
19868;DHT22;10096;51.112;6.776;2023-08-12T01:14:23;21.70;1.00
19868;DHT22;10096;51.112;6.776;2023-08-12T01:16:59;21.70;1.00
19868;DHT22;10096;51.112;6.776;2023-08-12T01:19:32;21.70;99.90
19868;DHT22;10096;51.112;6.776;2023-08-12T01:22:02;21.70;1.00
19868;DHT22;10096;51.112;6.776;2023-08-12T01:24:35;21.70;13.50
19868;DHT22;10096;51.112;6.776;2023-08-12T01:27:03;21.60;99.90
19868;DHT22;10096;51.112;6.776;2023-08-12T01:29:30;21.60;91.90
19868;DHT22;10096;51.112;6.776;2023-08-12T01:32:02;21.60;1.00
19868;DHT22;10096;51.112;6.776;2023-08-12T01:34:39;21.60;1.00
19868;DHT22;10096;51.112;6.776;2023-08-12T01:37:09;21.60;1.00
19868;DHT22;10096;51.112;6.776;2023-08-12T01:39:40;21.60;99.90
19868;DHT22;10096;51.112;6.776;2023-08-12T01:42:09;21.50;99.90
19868;DHT22;10096;51.112;6.776;2023-08-12T01:44:37;21.60;99.90
19868;DHT22;10096;51.112;6.776;2023-08-12T01:47:05;21.60;1.00
19868;DHT22;10096;51.112;6.776;2023-08-12T01:49:34;21.50;99.90
19868;DHT22;10096;51.112;6.776;2023-08-12T01:52:01;21.50;99.90
19868;DHT22;10096;51.112;6.776;2023-08-12T01:54:28;21.50;1.00
19868;DHT22;10096;51.112;6.776;2023-08-12T01:57:00;21.50;99.90
19868;DHT22;10096;51.112;6.776;2023-08-12T01:59:28;21.50;1.00
19868;DHT22;10096;51.112;6.776;2023-08-12T02:01:55;21.50;1.00
19868;DHT22;10096;51.112;6.776;2023-08-12T02:04:22;21.50;1.00
19868;DHT22;10096;51.112;6.776;2023-08-12T02:06:49;21.50;99.90
19868;DHT22;10096;51.112;6.776;2023-08-12T02:09:16;21.50;1.00
19868;DHT22;10096;51.112;6.776;2023-08-12T02:11:43;21.40;99.90
19868;DHT22;10096;51.112;6.776;2023-08-12T02:14:11;21.60;1.00
19868;DHT22;10096;51.112;6.776;2023-08-12T02:16:38;21.40;1.00
19868;DHT22;10096;51.112;6.776;2023-08-12T02:19:05;21.40;1.00
19868;DHT22;10096;51.112;6.776;2023-08-12T02:21:32;21.50;99.90
19868;DHT22;10096;51.112;6.776;2023-08-12T02:23:59;21.40;1.00
19868;DHT22;10096;51.112;6.776;2023-08-12T02:26:26;21.50;1.00
19868;DHT22;10096;51.112;6.776;2023-08-12T02:28:53;21.50;99.90
19868;DHT22;10096;51.112;6.776;2023-08-12T02:31:22;21.50;99.90
19868;DHT22;10096;51.112;6.776;2023-08-12T02:33:48;21.50;99.90
19868;DHT22;10096;51.112;6.776;2023-08-12T02:36:16;21.40;99.90
19868;DHT22;10096;51.112;6.776;2023-08-12T02:38:43;21.50;1.00
19868;DHT22;10096;51.112;6.776;2023-08-12T02:41:10;21.60;1.00
19868;DHT22;10096;51.112;6.776;2023-08-12T02:43:37;21.50;99.90
19868;DHT22;10096;51.112;6.776;2023-08-12T02:46:04;21.50;99.90
19868;DHT22;10096;51.112;6.776;2023-08-12T02:48:32;21.40;1.00
19868;DHT22;10096;51.112;6.776;2023-08-12T02:50:59;21.60;99.90
19868;DHT22;10096;51.112;6.776;2023-08-12T02:53:26;21.50;99.90
19868;DHT22;10096;51.112;6.776;2023-08-12T02:55:53;21.40;98.70
19868;DHT22;10096;51.112;6.776;2023-08-12T02:58:20;21.40;99.90
19868;DHT22;10096;51.112;6.776;2023-08-12T03:00:47;21.60;99.90
19868;DHT22;10096;51.112;6.776;2023-08-12T03:03:14;21.40;1.00
19868;DHT22;10096;51.112;6.776;2023-08-12T03:05:46;21.40;99.90
19868;DHT22;10096;51.112;6.776;2023-08-12T03:08:13;21.30;1.00
19868;DHT22;10096;51.112;6.776;2023-08-12T03:10:40;21.30;1.00
19868;DHT22;10096;51.112;6.776;2023-08-12T03:13:08;21.30;1.00
19868;DHT22;10096;51.112;6.776;2023-08-12T03:15:34;21.30;99.90
19868;DHT22;10096;51.112;6.776;2023-08-12T03:18:05;21.30;1.00
19868;DHT22;10096;51.112;6.776;2023-08-12T03:20:32;21.30;1.00
19868;DHT22;10096;51.112;6.776;2023-08-12T03:23:00;21.30;1.00
19868;DHT22;10096;51.112;6.776;2023-08-12T03:25:27;21.30;1.00
19868;DHT22;10096;51.112;6.776;2023-08-12T03:27:54;21.30;1.00
19868;DHT22;10096;51.112;6.776;2023-08-12T03:30:23;21.30;1.00
19868;DHT22;10096;51.112;6.776;2023-08-12T03:32:51;21.30;1.00
19868;DHT22;10096;51.112;6.776;2023-08-12T03:35:19;21.40;1.00
19868;DHT22;10096;51.112;6.776;2023-08-12T03:37:46;21.30;1.00
19868;DHT22;10096;51.112;6.776;2023-08-12T03:40:14;21.30;1.00
19868;DHT22;10096;51.112;6.776;2023-08-12T03:42:41;21.30;1.00
19868;DHT22;10096;51.112;6.776;2023-08-12T03:45:09;21.30;1.00
19868;DHT22;10096;51.112;6.776;2023-08-12T03:47:36;21.30;99.90
19868;DHT22;10096;51.112;6.776;2023-08-12T03:50:04;21.40;17.50
19868;DHT22;10096;51.112;6.776;2023-08-12T03:52:31;21.30;97.40
19868;DHT22;10096;51.112;6.776;2023-08-12T03:54:58;21.30;99.90
19868;DHT22;10096;51.112;6.776;2023-08-12T03:57:26;21.40;99.90
19868;DHT22;10096;51.112;6.776;2023-08-12T03:59:53;21.40;99.90
19868;DHT22;10096;51.112;6.776;2023-08-12T04:02:20;21.30;99.90
19868;DHT22;10096;51.112;6.776;2023-08-12T04:04:47;21.40;99.90
19868;DHT22;10096;51.112;6.776;2023-08-12T04:07:14;21.40;99.90
19868;DHT22;10096;51.112;6.776;2023-08-12T04:09:41;21.40;99.90
19868;DHT22;10096;51.112;6.776;2023-08-12T04:12:11;21.40;99.90
19868;DHT22;10096;51.112;6.776;2023-08-12T04:14:40;21.30;99.90
19868;DHT22;10096;51.112;6.776;2023-08-12T04:17:07;21.20;95.10
19868;DHT22;10096;51.112;6.776;2023-08-12T04:19:34;21.20;29.50
19868;DHT22;10096;51.112;6.776;2023-08-12T04:22:00;21.20;1.00
19868;DHT22;10096;51.112;6.776;2023-08-12T04:24:27;21.10;1.00
19868;DHT22;10096;51.112;6.776;2023-08-12T04:26:54;21.00;99.90
19868;DHT22;10096;51.112;6.776;2023-08-12T04:29:21;21.00;99.90
19868;DHT22;10096;51.112;6.776;2023-08-12T04:31:51;21.10;1.00
19868;DHT22;10096;51.112;6.776;2023-08-12T04:34:18;21.10;1.00
19868;DHT22;10096;51.112;6.776;2023-08-12T04:36:45;21.10;1.00
19868;DHT22;10096;51.112;6.776;2023-08-12T04:39:13;21.10;99.90
19868;DHT22;10096;51.112;6.776;2023-08-12T04:41:40;21.10;99.90
19868;DHT22;10096;51.112;6.776;2023-08-12T04:44:06;21.10;99.90
19868;DHT22;10096;51.112;6.776;2023-08-12T04:46:34;21.30;1.00
19868;DHT22;10096;51.112;6.776;2023-08-12T04:49:02;21.20;1.00
19868;DHT22;10096;51.112;6.776;2023-08-12T04:51:29;21.20;99.90
19868;DHT22;10096;51.112;6.776;2023-08-12T04:53:59;21.30;99.90
19868;DHT22;10096;51.112;6.776;2023-08-12T04:56:27;21.50;99.90
19868;DHT22;10096;51.112;6.776;2023-08-12T04:58:55;21.90;99.90
19868;DHT22;10096;51.112;6.776;2023-08-12T05:01:21;22.20;2.70
19868;DHT22;10096;51.112;6.776;2023-08-12T05:03:49;22.20;99.90
19868;DHT22;10096;51.112;6.776;2023-08-12T05:06:17;21.90;99.90
19868;DHT22;10096;51.112;6.776;2023-08-12T05:08:44;21.70;1.00
19868;DHT22;10096;51.112;6.776;2023-08-12T05:11:11;21.60;1.00
19868;DHT22;10096;51.112;6.776;2023-08-12T05:13:38;21.60;1.00
19868;DHT22;10096;51.112;6.776;2023-08-12T05:16:05;21.40;99.90
19868;DHT22;10096;51.112;6.776;2023-08-12T05:18:32;21.40;80.60
19868;DHT22;10096;51.112;6.776;2023-08-12T05:20:59;21.30;99.90
19868;DHT22;10096;51.112;6.776;2023-08-12T05:23:30;21.30;99.90
19868;DHT22;10096;51.112;6.776;2023-08-12T05:25:56;21.20;1.00
19868;DHT22;10096;51.112;6.776;2023-08-12T05:28:23;21.30;1.00
19868;DHT22;10096;51.112;6.776;2023-08-12T05:30:50;21.30;1.00
19868;DHT22;10096;51.112;6.776;2023-08-12T05:33:20;21.30;1.00
19868;DHT22;10096;51.112;6.776;2023-08-12T05:35:47;21.30;1.00
19868;DHT22;10096;51.112;6.776;2023-08-12T05:38:14;21.60;99.90
19868;DHT22;10096;51.112;6.776;2023-08-12T05:40:43;21.50;99.90
19868;DHT22;10096;51.112;6.776;2023-08-12T05:43:10;21.40;49.20
19868;DHT22;10096;51.112;6.776;2023-08-12T05:45:37;21.50;1.00
19868;DHT22;10096;51.112;6.776;2023-08-12T05:48:07;21.40;1.00
19868;DHT22;10096;51.112;6.776;2023-08-12T05:50:34;21.30;44.60
19868;DHT22;10096;51.112;6.776;2023-08-12T05:53:01;21.10;1.00
19868;DHT22;10096;51.112;6.776;2023-08-12T05:55:29;21.40;1.00
19868;DHT22;10096;51.112;6.776;2023-08-12T05:57:57;21.20;1.00
19868;DHT22;10096;51.112;6.776;2023-08-12T06:00:24;21.10;1.00
19868;DHT22;10096;51.112;6.776;2023-08-12T06:02:51;21.20;42.30
19868;DHT22;10096;51.112;6.776;2023-08-12T06:05:18;21.20;99.90
19868;DHT22;10096;51.112;6.776;2023-08-12T06:07:45;21.20;99.90
19868;DHT22;10096;51.112;6.776;2023-08-12T06:10:12;21.10;1.00
19868;DHT22;10096;51.112;6.776;2023-08-12T06:12:39;21.30;99.90
19868;DHT22;10096;51.112;6.776;2023-08-12T06:15:09;21.10;1.00
19868;DHT22;10096;51.112;6.776;2023-08-12T06:17:36;20.90;99.90
19868;DHT22;10096;51.112;6.776;2023-08-12T06:20:03;20.80;24.40
19868;DHT22;10096;51.112;6.776;2023-08-12T06:22:39;20.80;1.00
19868;DHT22;10096;51.112;6.776;2023-08-12T06:25:07;20.80;1.00
19868;DHT22;10096;51.112;6.776;2023-08-12T06:27:34;20.90;99.90
19868;DHT22;10096;51.112;6.776;2023-08-12T06:30:01;20.80;1.00
19868;DHT22;10096;51.112;6.776;2023-08-12T06:32:30;20.80;1.00
19868;DHT22;10096;51.112;6.776;2023-08-12T06:34:59;20.80;23.40
19868;DHT22;10096;51.112;6.776;2023-08-12T06:37:25;20.80;99.90
19868;DHT22;10096;51.112;6.776;2023-08-12T06:39:52;20.70;99.90
19868;DHT22;10096;51.112;6.776;2023-08-12T06:42:20;20.70;99.90
19868;DHT22;10096;51.112;6.776;2023-08-12T06:44:56;20.70;99.90
19868;DHT22;10096;51.112;6.776;2023-08-12T06:47:23;20.90;99.90
19868;DHT22;10096;51.112;6.776;2023-08-12T06:49:53;20.80;99.90
19868;DHT22;10096;51.112;6.776;2023-08-12T06:52:20;21.00;99.90
19868;DHT22;10096;51.112;6.776;2023-08-12T06:54:47;21.00;99.90
19868;DHT22;10096;51.112;6.776;2023-08-12T06:57:14;21.30;99.90
19868;DHT22;10096;51.112;6.776;2023-08-12T06:59:41;21.50;99.90
19868;DHT22;10096;51.112;6.776;2023-08-12T07:02:08;21.70;99.90
19868;DHT22;10096;51.112;6.776;2023-08-12T07:04:35;21.90;99.90
19868;DHT22;10096;51.112;6.776;2023-08-12T07:07:04;21.90;99.90
19868;DHT22;10096;51.112;6.776;2023-08-12T07:09:36;22.00;98.10
19868;DHT22;10096;51.112;6.776;2023-08-12T07:12:06;22.30;1.00
19868;DHT22;10096;51.112;6.776;2023-08-12T07:14:33;22.20;99.90
19868;DHT22;10096;51.112;6.776;2023-08-12T07:17:00;22.30;6.70
19868;DHT22;10096;51.112;6.776;2023-08-12T07:19:27;22.20;1.00
19868;DHT22;10096;51.112;6.776;2023-08-12T07:21:53;22.30;1.00
19868;DHT22;10096;51.112;6.776;2023-08-12T07:24:22;22.40;1.00
19868;DHT22;10096;51.112;6.776;2023-08-12T07:26:49;22.30;1.00
19868;DHT22;10096;51.112;6.776;2023-08-12T07:29:16;22.50;1.00
19868;DHT22;10096;51.112;6.776;2023-08-12T07:31:42;22.50;1.00
19868;DHT22;10096;51.112;6.776;2023-08-12T07:34:09;22.40;99.90
19868;DHT22;10096;51.112;6.776;2023-08-12T07:36:38;22.40;1.00
19868;DHT22;10096;51.112;6.776;2023-08-12T07:39:05;22.50;99.90
19868;DHT22;10096;51.112;6.776;2023-08-12T07:41:34;22.20;99.90
19868;DHT22;10096;51.112;6.776;2023-08-12T07:44:01;22.00;99.90
19868;DHT22;10096;51.112;6.776;2023-08-12T07:46:29;22.00;99.90
19868;DHT22;10096;51.112;6.776;2023-08-12T07:48:56;21.70;99.90
19868;DHT22;10096;51.112;6.776;2023-08-12T07:51:23;22.00;99.90
19868;DHT22;10096;51.112;6.776;2023-08-12T07:53:50;21.90;1.00
19868;DHT22;10096;51.112;6.776;2023-08-12T07:56:17;21.90;99.90
19868;DHT22;10096;51.112;6.776;2023-08-12T07:58:46;21.90;1.00
19868;DHT22;10096;51.112;6.776;2023-08-12T08:01:13;21.90;99.90
19868;DHT22;10096;51.112;6.776;2023-08-12T08:03:40;21.90;1.00
19868;DHT22;10096;51.112;6.776;2023-08-12T08:06:09;22.00;99.90
19868;DHT22;10096;51.112;6.776;2023-08-12T08:08:39;22.10;1.00
19868;DHT22;10096;51.112;6.776;2023-08-12T08:11:06;22.10;99.90
19868;DHT22;10096;51.112;6.776;2023-08-12T08:13:33;22.10;99.90
19868;DHT22;10096;51.112;6.776;2023-08-12T08:16:01;22.10;99.90
19868;DHT22;10096;51.112;6.776;2023-08-12T08:18:28;22.20;1.00
19868;DHT22;10096;51.112;6.776;2023-08-12T08:20:55;22.50;34.60
19868;DHT22;10096;51.112;6.776;2023-08-12T08:23:23;22.70;1.00
19868;DHT22;10096;51.112;6.776;2023-08-12T08:25:50;22.90;1.00
19868;DHT22;10096;51.112;6.776;2023-08-12T08:28:17;23.10;1.00
19868;DHT22;10096;51.112;6.776;2023-08-12T08:30:44;23.40;99.90
19868;DHT22;10096;51.112;6.776;2023-08-12T08:33:12;23.60;99.90
19868;DHT22;10096;51.112;6.776;2023-08-12T08:35:39;23.40;99.90
19868;DHT22;10096;51.112;6.776;2023-08-12T08:38:09;22.80;99.90
19868;DHT22;10096;51.112;6.776;2023-08-12T08:40:36;23.00;99.90
19868;DHT22;10096;51.112;6.776;2023-08-12T08:43:04;22.90;1.00
19868;DHT22;10096;51.112;6.776;2023-08-12T08:45:34;22.90;1.00
19868;DHT22;10096;51.112;6.776;2023-08-12T08:48:02;22.90;1.00
19868;DHT22;10096;51.112;6.776;2023-08-12T08:50:33;22.90;1.00
19868;DHT22;10096;51.112;6.776;2023-08-12T08:53:02;22.90;1.00
19868;DHT22;10096;51.112;6.776;2023-08-12T08:55:33;22.80;1.00
19868;DHT22;10096;51.112;6.776;2023-08-12T08:57:59;22.70;1.00
19868;DHT22;10096;51.112;6.776;2023-08-12T09:00:27;22.80;1.00
19868;DHT22;10096;51.112;6.776;2023-08-12T09:02:57;22.80;1.00
19868;DHT22;10096;51.112;6.776;2023-08-12T09:05:28;22.90;1.00
19868;DHT22;10096;51.112;6.776;2023-08-12T09:07:58;23.00;1.00
19868;DHT22;10096;51.112;6.776;2023-08-12T09:10:27;23.00;1.00
19868;DHT22;10096;51.112;6.776;2023-08-12T09:12:55;23.20;1.00
19868;DHT22;10096;51.112;6.776;2023-08-12T09:15:22;23.30;1.00
19868;DHT22;10096;51.112;6.776;2023-08-12T09:17:49;23.60;1.00
19868;DHT22;10096;51.112;6.776;2023-08-12T09:20:16;23.80;1.00
19868;DHT22;10096;51.112;6.776;2023-08-12T09:22:43;23.80;99.90
19868;DHT22;10096;51.112;6.776;2023-08-12T09:25:23;23.90;99.90
19868;DHT22;10096;51.112;6.776;2023-08-12T09:27:50;24.10;99.90
19868;DHT22;10096;51.112;6.776;2023-08-12T09:30:23;24.60;99.90
19868;DHT22;10096;51.112;6.776;2023-08-12T09:33:00;24.80;41.50
19868;DHT22;10096;51.112;6.776;2023-08-12T09:35:36;25.00;1.00
19868;DHT22;10096;51.112;6.776;2023-08-12T09:38:05;24.90;1.00
19868;DHT22;10096;51.112;6.776;2023-08-12T09:40:35;24.70;1.00
19868;DHT22;10096;51.112;6.776;2023-08-12T09:43:02;24.50;17.60
19868;DHT22;10096;51.112;6.776;2023-08-12T09:45:32;24.30;99.90
19868;DHT22;10096;51.112;6.776;2023-08-12T09:48:00;24.40;99.90
19868;DHT22;10096;51.112;6.776;2023-08-12T09:50:28;24.70;21.00
19868;DHT22;10096;51.112;6.776;2023-08-12T09:52:57;25.10;1.00
19868;DHT22;10096;51.112;6.776;2023-08-12T09:55:25;25.20;1.00
19868;DHT22;10096;51.112;6.776;2023-08-12T09:57:54;25.30;1.00
19868;DHT22;10096;51.112;6.776;2023-08-12T10:00:23;25.50;1.00
19868;DHT22;10096;51.112;6.776;2023-08-12T10:02:52;25.30;1.00
19868;DHT22;10096;51.112;6.776;2023-08-12T10:05:21;25.10;1.00
19868;DHT22;10096;51.112;6.776;2023-08-12T10:07:48;25.20;1.00
19868;DHT22;10096;51.112;6.776;2023-08-12T10:10:16;25.30;1.00
19868;DHT22;10096;51.112;6.776;2023-08-12T10:12:43;25.60;1.00
19868;DHT22;10096;51.112;6.776;2023-08-12T10:15:12;25.60;1.00
19868;DHT22;10096;51.112;6.776;2023-08-12T10:17:41;25.50;1.00
19868;DHT22;10096;51.112;6.776;2023-08-12T10:20:13;25.30;1.00
19868;DHT22;10096;51.112;6.776;2023-08-12T10:22:43;25.20;1.00
19868;DHT22;10096;51.112;6.776;2023-08-12T10:25:13;25.20;1.00
19868;DHT22;10096;51.112;6.776;2023-08-12T10:27:41;25.20;1.00
19868;DHT22;10096;51.112;6.776;2023-08-12T10:30:09;25.20;1.00
19868;DHT22;10096;51.112;6.776;2023-08-12T10:32:39;25.00;1.00
19868;DHT22;10096;51.112;6.776;2023-08-12T10:35:07;25.30;1.00
19868;DHT22;10096;51.112;6.776;2023-08-12T10:37:35;25.30;1.00
19868;DHT22;10096;51.112;6.776;2023-08-12T10:40:03;25.50;1.00
19868;DHT22;10096;51.112;6.776;2023-08-12T10:42:40;25.50;1.00
19868;DHT22;10096;51.112;6.776;2023-08-12T10:45:10;25.50;1.00
19868;DHT22;10096;51.112;6.776;2023-08-12T10:48:11;25.20;1.00
19868;DHT22;10096;51.112;6.776;2023-08-12T10:50:44;24.90;1.00
19868;DHT22;10096;51.112;6.776;2023-08-12T10:53:23;24.70;1.00
19868;DHT22;10096;51.112;6.776;2023-08-12T10:55:55;24.70;1.00
19868;DHT22;10096;51.112;6.776;2023-08-12T10:58:27;24.70;1.00
19868;DHT22;10096;51.112;6.776;2023-08-12T11:01:03;24.50;1.00
19868;DHT22;10096;51.112;6.776;2023-08-12T11:03:36;24.40;1.00
19868;DHT22;10096;51.112;6.776;2023-08-12T11:06:03;24.20;1.00
19868;DHT22;10096;51.112;6.776;2023-08-12T11:08:34;24.10;1.00
19868;DHT22;10096;51.112;6.776;2023-08-12T11:11:01;23.90;61.00
19868;DHT22;10096;51.112;6.776;2023-08-12T11:13:29;23.60;99.90
19868;DHT22;10096;51.112;6.776;2023-08-12T11:16:06;23.70;99.90
19868;DHT22;10096;51.112;6.776;2023-08-12T11:18:36;23.80;99.90
19868;DHT22;10096;51.112;6.776;2023-08-12T11:21:03;23.80;99.90
19868;DHT22;10096;51.112;6.776;2023-08-12T11:23:33;24.00;99.90
19868;DHT22;10096;51.112;6.776;2023-08-12T11:26:03;24.10;99.90
19868;DHT22;10096;51.112;6.776;2023-08-12T11:28:30;24.40;99.90
19868;DHT22;10096;51.112;6.776;2023-08-12T11:30:57;24.70;99.90
19868;DHT22;10096;51.112;6.776;2023-08-12T11:33:24;24.90;99.20
19868;DHT22;10096;51.112;6.776;2023-08-12T11:35:53;25.10;35.70
19868;DHT22;10096;51.112;6.776;2023-08-12T11:38:22;25.40;1.00
19868;DHT22;10096;51.112;6.776;2023-08-12T11:40:50;25.50;1.00
19868;DHT22;10096;51.112;6.776;2023-08-12T11:43:21;25.70;1.00
19868;DHT22;10096;51.112;6.776;2023-08-12T11:45:49;25.80;1.00
19868;DHT22;10096;51.112;6.776;2023-08-12T11:48:16;25.70;1.00
19868;DHT22;10096;51.112;6.776;2023-08-12T11:50:43;25.90;1.00
19868;DHT22;10096;51.112;6.776;2023-08-12T11:53:12;25.90;1.00
19868;DHT22;10096;51.112;6.776;2023-08-12T11:55:39;26.00;1.00
19868;DHT22;10096;51.112;6.776;2023-08-12T11:58:07;26.00;1.00
19868;DHT22;10096;51.112;6.776;2023-08-12T12:00:34;26.20;1.00
19868;DHT22;10096;51.112;6.776;2023-08-12T12:03:01;26.40;1.00
19868;DHT22;10096;51.112;6.776;2023-08-12T12:05:29;26.50;1.00
19868;DHT22;10096;51.112;6.776;2023-08-12T12:07:58;26.60;1.00
19868;DHT22;10096;51.112;6.776;2023-08-12T12:10:28;26.70;1.00
19868;DHT22;10096;51.112;6.776;2023-08-12T12:12:56;27.00;1.00
19868;DHT22;10096;51.112;6.776;2023-08-12T12:15:23;27.30;1.00
19868;DHT22;10096;51.112;6.776;2023-08-12T12:17:51;27.40;1.00
19868;DHT22;10096;51.112;6.776;2023-08-12T12:20:18;27.30;1.00
19868;DHT22;10096;51.112;6.776;2023-08-12T12:22:48;27.10;1.00
19868;DHT22;10096;51.112;6.776;2023-08-12T12:25:18;27.20;1.00
19868;DHT22;10096;51.112;6.776;2023-08-12T12:27:49;27.40;99.90
19868;DHT22;10096;51.112;6.776;2023-08-12T12:30:17;27.40;99.90
19868;DHT22;10096;51.112;6.776;2023-08-12T12:32:45;27.70;99.90
19868;DHT22;10096;51.112;6.776;2023-08-12T12:35:12;27.70;99.90
19868;DHT22;10096;51.112;6.776;2023-08-12T12:37:39;28.00;99.90
19868;DHT22;10096;51.112;6.776;2023-08-12T12:40:08;28.00;99.90
19868;DHT22;10096;51.112;6.776;2023-08-12T12:42:38;27.80;99.90
19868;DHT22;10096;51.112;6.776;2023-08-12T12:45:09;27.40;99.90
19868;DHT22;10096;51.112;6.776;2023-08-12T12:47:36;26.90;99.90
19868;DHT22;10096;51.112;6.776;2023-08-12T12:50:06;26.30;99.90
19868;DHT22;10096;51.112;6.776;2023-08-12T12:52:33;25.90;99.90
19868;DHT22;10096;51.112;6.776;2023-08-12T12:55:00;25.20;1.00
19868;DHT22;10096;51.112;6.776;2023-08-12T12:57:30;24.80;1.00
19868;DHT22;10096;51.112;6.776;2023-08-12T12:59:57;24.50;1.00
19868;DHT22;10096;51.112;6.776;2023-08-12T13:02:25;24.20;1.00
19868;DHT22;10096;51.112;6.776;2023-08-12T13:04:52;23.90;20.70
19868;DHT22;10096;51.112;6.776;2023-08-12T13:07:19;23.70;99.90
19868;DHT22;10096;51.112;6.776;2023-08-12T13:09:46;23.70;99.90
19868;DHT22;10096;51.112;6.776;2023-08-12T13:12:16;24.10;99.90
19868;DHT22;10096;51.112;6.776;2023-08-12T13:14:45;24.40;99.90
19868;DHT22;10096;51.112;6.776;2023-08-12T13:17:12;24.60;10.10
19868;DHT22;10096;51.112;6.776;2023-08-12T13:19:41;24.60;1.00
19868;DHT22;10096;51.112;6.776;2023-08-12T13:22:08;24.70;1.00
19868;DHT22;10096;51.112;6.776;2023-08-12T13:24:37;24.90;1.00
19868;DHT22;10096;51.112;6.776;2023-08-12T13:27:04;25.10;1.00
19868;DHT22;10096;51.112;6.776;2023-08-12T13:29:31;25.20;1.00
19868;DHT22;10096;51.112;6.776;2023-08-12T13:31:58;25.30;1.00
19868;DHT22;10096;51.112;6.776;2023-08-12T13:34:25;25.30;1.00
19868;DHT22;10096;51.112;6.776;2023-08-12T13:37:04;25.30;1.00
19868;DHT22;10096;51.112;6.776;2023-08-12T13:39:39;25.70;1.00
19868;DHT22;10096;51.112;6.776;2023-08-12T13:42:06;25.60;1.00
19868;DHT22;10096;51.112;6.776;2023-08-12T13:44:33;25.70;1.00
19868;DHT22;10096;51.112;6.776;2023-08-12T13:47:02;25.70;1.00
19868;DHT22;10096;51.112;6.776;2023-08-12T13:49:29;25.90;1.00
19868;DHT22;10096;51.112;6.776;2023-08-12T13:51:58;25.90;1.00
19868;DHT22;10096;51.112;6.776;2023-08-12T13:54:25;26.00;1.00
19868;DHT22;10096;51.112;6.776;2023-08-12T13:56:52;25.80;1.00
19868;DHT22;10096;51.112;6.776;2023-08-12T13:59:22;26.30;1.00
19868;DHT22;10096;51.112;6.776;2023-08-12T14:01:50;26.20;1.00
19868;DHT22;10096;51.112;6.776;2023-08-12T14:04:17;26.10;1.00
19868;DHT22;10096;51.112;6.776;2023-08-12T14:06:44;25.80;1.00
19868;DHT22;10096;51.112;6.776;2023-08-12T14:09:15;25.70;1.00
19868;DHT22;10096;51.112;6.776;2023-08-12T14:11:44;25.50;1.00
19868;DHT22;10096;51.112;6.776;2023-08-12T14:14:11;25.80;1.00
19868;DHT22;10096;51.112;6.776;2023-08-12T14:16:38;25.80;1.00
19868;DHT22;10096;51.112;6.776;2023-08-12T14:19:05;25.70;1.00
19868;DHT22;10096;51.112;6.776;2023-08-12T14:21:35;25.90;1.00
19868;DHT22;10096;51.112;6.776;2023-08-12T14:24:03;25.80;1.00
19868;DHT22;10096;51.112;6.776;2023-08-12T14:26:33;25.80;1.00
19868;DHT22;10096;51.112;6.776;2023-08-12T14:29:01;25.80;1.00
19868;DHT22;10096;51.112;6.776;2023-08-12T14:31:35;25.60;1.00
19868;DHT22;10096;51.112;6.776;2023-08-12T14:34:02;25.50;1.00
19868;DHT22;10096;51.112;6.776;2023-08-12T14:36:32;25.30;1.00
19868;DHT22;10096;51.112;6.776;2023-08-12T14:39:03;25.50;1.00
19868;DHT22;10096;51.112;6.776;2023-08-12T14:41:34;25.70;1.00
19868;DHT22;10096;51.112;6.776;2023-08-12T14:44:01;25.80;1.00
19868;DHT22;10096;51.112;6.776;2023-08-12T14:46:28;25.70;99.90
19868;DHT22;10096;51.112;6.776;2023-08-12T14:48:56;25.50;99.90
19868;DHT22;10096;51.112;6.776;2023-08-12T14:51:27;25.50;99.90
19868;DHT22;10096;51.112;6.776;2023-08-12T14:53:55;25.50;99.90
19868;DHT22;10096;51.112;6.776;2023-08-12T14:56:23;25.60;99.90
19868;DHT22;10096;51.112;6.776;2023-08-12T14:58:55;25.60;99.90
19868;DHT22;10096;51.112;6.776;2023-08-12T15:01:26;25.60;99.90
19868;DHT22;10096;51.112;6.776;2023-08-12T15:03:57;25.60;99.90
19868;DHT22;10096;51.112;6.776;2023-08-12T15:06:28;25.80;99.90
19868;DHT22;10096;51.112;6.776;2023-08-12T15:09:02;25.90;99.90
19868;DHT22;10096;51.112;6.776;2023-08-12T15:11:32;25.90;99.90
19868;DHT22;10096;51.112;6.776;2023-08-12T15:14:02;25.80;99.90
19868;DHT22;10096;51.112;6.776;2023-08-12T15:16:32;25.50;99.90
19868;DHT22;10096;51.112;6.776;2023-08-12T15:19:03;25.40;99.90
19868;DHT22;10096;51.112;6.776;2023-08-12T15:21:30;25.30;99.90
19868;DHT22;10096;51.112;6.776;2023-08-12T15:24:00;25.20;99.90
19868;DHT22;10096;51.112;6.776;2023-08-12T15:26:28;25.20;99.90
19868;DHT22;10096;51.112;6.776;2023-08-12T15:28:55;25.30;99.90
19868;DHT22;10096;51.112;6.776;2023-08-12T15:31:27;25.30;99.90
19868;DHT22;10096;51.112;6.776;2023-08-12T15:33:55;25.40;99.90
19868;DHT22;10096;51.112;6.776;2023-08-12T15:36:26;25.20;99.90
19868;DHT22;10096;51.112;6.776;2023-08-12T15:38:53;25.30;99.90
19868;DHT22;10096;51.112;6.776;2023-08-12T15:41:20;25.30;99.90
19868;DHT22;10096;51.112;6.776;2023-08-12T15:43:49;25.40;99.90
19868;DHT22;10096;51.112;6.776;2023-08-12T15:46:20;25.50;99.90